Time;durP1;ratioP1;P1;durP2;ratioP2;P2;SDS_P1;SDS_P2;PMS_P1;PMS_P2;Temp;Humidity;BMP_temperature;BMP_pressure;BME280_temperature;BME280_humidity;BME280_pressure;Samples;Min_cycle;Max_cycle;Signal;HPM_P1;HPM_P2
2021/07/10 00:02:06;;;;;;;7.03;4.45;;;23.00;59.80;;;;;;4978652;28;20148;-79
2021/07/10 00:04:32;;;;;;;6.15;4.68;;;22.90;59.80;;;;;;4994747;28;20046;-78
2021/07/10 00:06:58;;;;;;;6.20;4.53;;;22.90;59.80;;;;;;4994920;28;20081;-79
2021/07/10 00:09:26;;;;;;;6.93;4.22;;;22.90;59.90;;;;;;4978760;28;20080;-79
2021/07/10 00:11:52;;;;;;;6.28;4.82;;;22.80;59.90;;;;;;4978757;28;20108;-79
2021/07/10 00:14:18;;;;;;;6.07;4.60;;;22.80;60.00;;;;;;4996385;28;20042;-79
2021/07/10 00:16:44;;;;;;;5.78;4.35;;;22.80;60.00;;;;;;4978817;28;20117;-79
2021/07/10 00:19:10;;;;;;;5.70;4.57;;;22.70;60.00;;;;;;4979196;28;20489;-79
2021/07/10 00:21:36;;;;;;;5.75;4.43;;;22.70;60.00;;;;;;4994779;28;20044;-79
2021/07/10 00:24:03;;;;;;;5.90;4.22;;;22.70;60.00;;;;;;4994555;28;20030;-79
2021/07/10 00:26:28;;;;;;;6.13;4.47;;;22.70;60.10;;;;;;4978624;28;20605;-80
2021/07/10 00:28:54;;;;;;;6.00;4.55;;;22.70;60.20;;;;;;4994164;28;20050;-79
2021/07/10 00:31:20;;;;;;;6.35;4.75;;;22.70;60.10;;;;;;4978932;28;20058;-80
2021/07/10 00:33:46;;;;;;;6.28;4.45;;;22.60;60.80;;;;;;4978309;28;20366;-80
2021/07/10 00:36:12;;;;;;;5.97;4.68;;;22.60;60.20;;;;;;4978235;28;20117;-78
2021/07/10 00:38:38;;;;;;;5.63;4.20;;;22.50;60.20;;;;;;4994035;28;20030;-79
2021/07/10 00:41:03;;;;;;;6.00;4.75;;;22.50;60.20;;;;;;4995078;28;20042;-79
2021/07/10 00:43:29;;;;;;;7.30;4.72;;;22.50;60.30;;;;;;4990525;28;20340;-81
2021/07/10 00:45:55;;;;;;;7.03;4.82;;;22.50;60.30;;;;;;4977395;28;20022;-80
2021/07/10 00:48:21;;;;;;;6.30;4.82;;;22.50;60.40;;;;;;4978013;28;20109;-79
2021/07/10 00:50:48;;;;;;;6.40;4.72;;;22.40;60.40;;;;;;4994148;28;20130;-79
2021/07/10 00:53:14;;;;;;;7.00;4.68;;;22.40;60.40;;;;;;4961636;28;20030;-79
2021/07/10 00:55:40;;;;;;;6.38;4.85;;;22.40;60.50;;;;;;4993971;28;20030;-79
2021/07/10 00:58:06;;;;;;;6.65;5.20;;;22.40;60.50;;;;;;4993714;28;20073;-78
2021/07/10 01:00:31;;;;;;;6.47;4.90;;;22.40;60.50;;;;;;4993756;28;20513;-81
2021/07/10 01:02:57;;;;;;;6.28;4.97;;;22.40;60.50;;;;;;4961534;28;20068;-79
2021/07/10 01:05:30;;;;;;;6.22;4.60;;;22.30;60.60;;;;;;4977167;28;20062;-79
2021/07/10 01:07:57;;;;;;;6.72;4.82;;;22.30;60.70;;;;;;4977457;28;20034;-80
2021/07/10 01:10:24;;;;;;;5.55;4.70;;;22.30;60.60;;;;;;4977694;28;20443;-79
2021/07/10 01:12:52;;;;;;;6.60;5.03;;;22.30;60.70;;;;;;4977759;28;20034;-79
2021/07/10 01:15:20;;;;;;;6.63;4.88;;;22.20;60.70;;;;;;4977239;28;20041;-78
2021/07/10 01:17:46;;;;;;;6.15;4.90;;;22.20;60.70;;;;;;4977189;28;20494;-79
2021/07/10 01:20:16;;;;;;;6.72;5.07;;;22.20;60.70;;;;;;4977329;28;20061;-79
2021/07/10 01:22:44;;;;;;;6.30;4.75;;;22.10;60.70;;;;;;4995043;28;20030;-79
2021/07/10 01:25:13;;;;;;;7.38;5.45;;;22.10;60.80;;;;;;4961405;28;20089;-79
2021/07/10 01:27:39;;;;;;;6.03;4.28;;;22.10;60.80;;;;;;4993288;28;20066;-79
2021/07/10 01:30:18;;;;;;;6.03;4.47;;;22.10;60.90;;;;;;4977397;28;20038;-78
2021/07/10 01:32:47;;;;;;;6.82;5.05;;;22.10;61.10;;;;;;4977424;28;20026;-79
2021/07/10 01:35:12;;;;;;;6.32;4.95;;;22.10;61.00;;;;;;4976612;28;20022;-79
2021/07/10 01:37:42;;;;;;;6.75;5.10;;;22.00;60.90;;;;;;4976951;28;20046;-79
2021/07/10 01:40:09;;;;;;;5.88;4.50;;;22.00;61.10;;;;;;4993147;28;20463;-79
2021/07/10 01:42:35;;;;;;;6.85;5.38;;;22.00;61.10;;;;;;4960867;28;20076;-81
2021/07/10 01:45:01;;;;;;;6.60;5.20;;;22.00;61.10;;;;;;4960632;28;20364;-79
2021/07/10 01:47:27;;;;;;;6.63;5.13;;;22.00;61.20;;;;;;4977498;28;20037;-79
2021/07/10 01:49:53;;;;;;;6.05;4.70;;;22.00;61.20;;;;;;4993124;28;20113;-79
2021/07/10 01:52:19;;;;;;;6.63;5.15;;;21.90;61.20;;;;;;4960883;28;20031;-79
2021/07/10 01:54:45;;;;;;;6.90;5.00;;;21.90;61.20;;;;;;4960752;28;20030;-78
2021/07/10 01:57:11;;;;;;;7.40;5.25;;;21.90;61.30;;;;;;4960375;28;20019;-79
2021/07/10 01:59:38;;;;;;;7.22;5.28;;;21.90;61.30;;;;;;4976931;28;20038;-80
2021/07/10 02:02:04;;;;;;;6.40;5.10;;;21.90;61.40;;;;;;4976197;28;20047;-80
2021/07/10 02:04:31;;;;;;;7.10;5.45;;;21.90;61.40;;;;;;4960687;28;20039;-79
2021/07/10 02:06:58;;;;;;;6.35;4.70;;;21.80;61.40;;;;;;4961443;28;20018;-79
2021/07/10 02:09:25;;;;;;;7.22;5.38;;;21.80;61.40;;;;;;4976703;28;20121;-79
2021/07/10 02:11:51;;;;;;;6.70;5.10;;;21.80;61.40;;;;;;4960496;28;20022;-80
2021/07/10 02:14:19;;;;;;;6.63;5.38;;;21.80;61.50;;;;;;4960647;28;20121;-79
2021/07/10 02:16:47;;;;;;;6.80;5.30;;;21.80;61.60;;;;;;4960578;28;20557;-79
2021/07/10 02:19:13;;;;;;;7.38;5.93;;;21.80;61.60;;;;;;4993794;28;20030;-79
2021/07/10 02:21:39;;;;;;;6.43;5.03;;;21.80;61.60;;;;;;4992743;28;20088;-80
2021/07/10 02:24:06;;;;;;;6.22;5.03;;;21.70;61.70;;;;;;4976499;28;20076;-79
2021/07/10 02:26:33;;;;;;;7.50;5.38;;;21.70;61.70;;;;;;4960448;28;20030;-79
2021/07/10 02:28:59;;;;;;;6.65;5.53;;;21.70;61.70;;;;;;4976316;28;20058;-80
2021/07/10 02:31:24;;;;;;;7.63;5.65;;;21.70;61.70;;;;;;4960666;28;20045;-80
2021/07/10 02:33:51;;;;;;;7.30;5.63;;;21.60;61.70;;;;;;4976696;28;20441;-80
2021/07/10 02:36:18;;;;;;;7.13;5.57;;;21.70;62.50;;;;;;4960308;28;20076;-80
2021/07/10 02:38:44;;;;;;;7.18;5.80;;;21.60;61.80;;;;;;4976532;28;20093;-78
2021/07/10 02:41:11;;;;;;;8.52;5.80;;;21.60;61.90;;;;;;4992589;28;20031;-81
2021/07/10 02:43:36;;;;;;;8.00;6.22;;;21.60;61.90;;;;;;4977101;28;20030;-79
2021/07/10 02:46:03;;;;;;;7.57;5.95;;;21.60;61.90;;;;;;4960639;28;20389;-78
2021/07/10 02:48:28;;;;;;;7.45;5.88;;;21.50;61.90;;;;;;4976194;28;20022;-81
2021/07/10 02:50:54;;;;;;;7.32;5.93;;;21.50;61.90;;;;;;4994237;28;20422;-80
2021/07/10 02:53:20;;;;;;;7.80;5.65;;;21.60;62.00;;;;;;4976329;28;20486;-79
2021/07/10 02:55:46;;;;;;;8.10;6.00;;;21.50;62.00;;;;;;4976102;28;20085;-79
2021/07/10 02:58:12;;;;;;;7.60;6.07;;;21.50;62.00;;;;;;4959972;28;20073;-80
2021/07/10 03:00:37;;;;;;;8.23;6.43;;;21.50;62.00;;;;;;4976058;28;20030;-79
2021/07/10 03:03:04;;;;;;;7.65;5.82;;;21.40;62.00;;;;;;4976939;28;20042;-79
2021/07/10 03:05:31;;;;;;;7.53;5.97;;;21.40;62.00;;;;;;4976550;28;20034;-78
2021/07/10 03:07:57;;;;;;;7.95;5.57;;;21.40;62.00;;;;;;4993715;28;20058;-79
2021/07/10 03:10:27;;;;;;;7.55;5.88;;;21.40;62.10;;;;;;4963962;28;20062;-79
2021/07/10 03:12:54;;;;;;;7.63;6.10;;;21.40;62.10;;;;;;4979383;28;20034;-79
2021/07/10 03:15:20;;;;;;;7.57;6.00;;;21.40;62.10;;;;;;4963487;28;20034;-79
2021/07/10 03:17:47;;;;;;;7.70;6.25;;;21.40;62.80;;;;;;4979617;28;20037;-79
2021/07/10 03:20:14;;;;;;;7.28;5.55;;;21.30;62.20;;;;;;4996041;28;20038;-79
2021/07/10 03:22:41;;;;;;;7.88;5.68;;;21.30;62.20;;;;;;4979460;28;20026;-81
2021/07/10 03:25:09;;;;;;;6.97;5.50;;;21.30;62.20;;;;;;4996938;28;20030;-79
2021/07/10 03:27:35;;;;;;;7.82;6.18;;;21.30;62.30;;;;;;4979320;28;20026;-79
2021/07/10 03:30:03;;;;;;;8.00;5.85;;;21.20;62.20;;;;;;4963906;28;20093;-79
2021/07/10 03:32:29;;;;;;;8.43;6.07;;;21.20;62.20;;;;;;4963265;28;20088;-79
2021/07/10 03:34:55;;;;;;;7.28;5.70;;;21.20;62.30;;;;;;4963436;28;20066;-79
2021/07/10 03:37:21;;;;;;;7.65;6.13;;;21.20;62.30;;;;;;4979036;28;20383;-79
2021/07/10 03:39:46;;;;;;;7.50;5.78;;;21.20;62.40;;;;;;4995091;28;20109;-80
2021/07/10 03:42:12;;;;;;;7.68;5.93;;;21.10;62.30;;;;;;4979359;28;20137;-79
2021/07/10 03:44:38;;;;;;;7.60;5.55;;;21.10;62.40;;;;;;4963784;28;20451;-79
2021/07/10 03:47:04;;;;;;;7.38;5.85;;;21.10;62.40;;;;;;4979216;28;20037;-78
2021/07/10 03:49:30;;;;;;;7.40;5.43;;;21.10;62.40;;;;;;4979177;28;20368;-80
2021/07/10 03:51:55;;;;;;;7.97;6.05;;;21.00;62.40;;;;;;4978861;28;20038;-79
2021/07/10 03:54:21;;;;;;;7.20;5.57;;;21.10;62.50;;;;;;4994970;28;20030;-79
2021/07/10 03:56:47;;;;;;;7.15;5.47;;;21.00;62.50;;;;;;4978524;28;20486;-79
2021/07/10 03:59:13;;;;;;;7.03;5.40;;;21.00;62.50;;;;;;4978801;28;20118;-79
2021/07/10 04:01:41;;;;;;;7.55;5.63;;;21.00;62.50;;;;;;4962975;28;20142;-79
2021/07/10 04:04:08;;;;;;;6.50;5.22;;;21.00;62.50;;;;;;4962519;28;20490;-79
2021/07/10 04:06:33;;;;;;;7.03;5.65;;;20.90;62.60;;;;;;4979017;28;20046;-78
2021/07/10 04:08:59;;;;;;;6.80;5.32;;;20.90;62.60;;;;;;4962448;28;20026;-79
2021/07/10 04:11:25;;;;;;;8.13;5.43;;;20.90;62.60;;;;;;4978264;28;20038;-79
2021/07/10 04:13:51;;;;;;;7.25;5.55;;;20.90;62.60;;;;;;4994650;28;20532;-80
2021/07/10 04:16:17;;;;;;;6.95;5.22;;;20.90;62.70;;;;;;4962340;28;20041;-79
2021/07/10 04:18:42;;;;;;;7.00;5.30;;;20.80;62.70;;;;;;4962486;28;20093;-79
2021/07/10 04:21:09;;;;;;;7.15;5.78;;;20.80;62.80;;;;;;4994290;28;20034;-79
2021/07/10 04:23:38;;;;;;;6.47;4.90;;;20.80;62.80;;;;;;4994683;28;20037;-79
2021/07/10 04:26:04;;;;;;;7.63;5.85;;;20.80;62.80;;;;;;4978352;28;20475;-78
2021/07/10 04:28:30;;;;;;;7.53;5.95;;;20.80;62.90;;;;;;4978406;28;20118;-78
2021/07/10 04:30:55;;;;;;;7.38;5.50;;;20.80;63.00;;;;;;4994954;28;20376;-78
2021/07/10 04:33:21;;;;;;;6.70;5.45;;;20.80;63.00;;;;;;4962174;28;20050;-79
2021/07/10 04:35:47;;;;;;;7.03;5.47;;;20.80;63.00;;;;;;4978168;28;20578;-79
2021/07/10 04:38:14;;;;;;;7.13;5.28;;;20.70;63.00;;;;;;4962242;28;20033;-79
2021/07/10 04:40:40;;;;;;;7.32;5.45;;;20.70;63.00;;;;;;4962743;28;20477;-79
2021/07/10 04:43:06;;;;;;;6.38;4.90;;;20.70;63.00;;;;;;4977806;28;20031;-79
2021/07/10 04:45:31;;;;;;;7.47;5.47;;;20.70;63.10;;;;;;4994327;28;20478;-78
2021/07/10 04:47:57;;;;;;;7.80;5.57;;;20.70;63.20;;;;;;4977998;28;20033;-80
2021/07/10 04:50:23;;;;;;;7.78;5.03;;;20.70;63.20;;;;;;4977827;28;20126;-79
2021/07/10 04:52:49;;;;;;;6.43;4.93;;;20.70;63.20;;;;;;4977679;28;20027;-79
2021/07/10 04:55:16;;;;;;;7.30;5.30;;;20.70;63.20;;;;;;4961650;28;20117;-79
2021/07/10 04:57:44;;;;;;;7.22;5.50;;;20.70;63.30;;;;;;4977721;28;20121;-78
2021/07/10 05:00:11;;;;;;;8.02;6.07;;;20.60;63.30;;;;;;4995602;28;20038;-81
2021/07/10 05:02:36;;;;;;;6.63;5.15;;;20.70;63.40;;;;;;4993298;28;20058;-79
2021/07/10 05:05:04;;;;;;;6.80;5.25;;;20.70;63.40;;;;;;4994157;28;20044;-81
2021/07/10 05:07:30;;;;;;;7.20;5.45;;;20.60;63.40;;;;;;4994998;28;20109;-80
2021/07/10 05:09:55;;;;;;;6.55;5.55;;;20.60;63.40;;;;;;4994446;28;20419;-79
2021/07/10 05:12:22;;;;;;;8.10;5.90;;;20.70;63.50;;;;;;4961445;28;20503;-79
2021/07/10 05:14:53;;;;;;;7.38;5.47;;;20.70;63.50;;;;;;4977350;28;20045;-79
2021/07/10 05:17:19;;;;;;;6.85;5.43;;;20.60;63.50;;;;;;4961556;28;20030;-79
2021/07/10 05:19:45;;;;;;;7.28;5.57;;;20.70;63.60;;;;;;4977687;28;20022;-80
2021/07/10 05:22:12;;;;;;;7.13;5.47;;;20.70;63.60;;;;;;4961315;28;20034;-79
2021/07/10 05:24:38;;;;;;;7.32;5.45;;;20.70;63.60;;;;;;4977850;28;20030;-79
2021/07/10 05:27:04;;;;;;;7.18;5.45;;;20.70;63.60;;;;;;4977736;28;20112;-79
2021/07/10 05:29:30;;;;;;;7.57;5.55;;;20.70;63.60;;;;;;4977224;28;20382;-79
2021/07/10 05:31:56;;;;;;;6.60;5.22;;;20.70;63.60;;;;;;4976930;28;20069;-81
2021/07/10 05:34:21;;;;;;;7.53;5.75;;;20.70;63.60;;;;;;4977290;28;20037;-80
2021/07/10 05:36:48;;;;;;;6.88;5.22;;;20.70;63.60;;;;;;4993581;28;20034;-81
2021/07/10 05:39:14;;;;;;;7.43;5.72;;;20.70;63.70;;;;;;4993302;28;20030;-81
2021/07/10 05:41:40;;;;;;;7.75;5.45;;;20.70;63.60;;;;;;4961003;28;20391;-79
2021/07/10 05:44:07;;;;;;;7.13;5.43;;;20.70;63.70;;;;;;4993954;28;20064;-80
2021/07/10 05:46:32;;;;;;;8.05;6.18;;;20.70;63.70;;;;;;4993193;28;20026;-80
2021/07/10 05:48:59;;;;;;;7.40;5.88;;;20.70;63.70;;;;;;4993050;28;20092;-79
2021/07/10 05:51:25;;;;;;;8.55;5.90;;;20.70;63.80;;;;;;4977059;28;20385;-78
2021/07/10 05:53:51;;;;;;;7.45;5.63;;;20.70;63.70;;;;;;4994264;28;20125;-78
2021/07/10 05:56:16;;;;;;;7.63;5.93;;;20.70;63.70;;;;;;4993076;28;20045;-79
2021/07/10 05:58:42;;;;;;;8.57;6.35;;;20.70;63.80;;;;;;4994716;28;20022;-78
2021/07/10 06:01:08;;;;;;;8.70;6.35;;;20.80;63.80;;;;;;4973493;28;20078;-79
2021/07/10 06:03:34;;;;;;;7.00;5.82;;;20.80;63.80;;;;;;4974801;28;20042;-84
2021/07/10 06:06:00;;;;;;;7.43;6.30;;;20.80;63.80;;;;;;4973185;28;20039;-82
2021/07/10 06:08:26;;;;;;;7.47;5.88;;;20.80;63.80;;;;;;4957301;28;20038;-80
2021/07/10 06:10:52;;;;;;;8.18;6.20;;;20.80;63.80;;;;;;4957091;28;20453;-81
2021/07/10 06:13:17;;;;;;;7.13;5.55;;;20.80;63.80;;;;;;4941237;28;20055;-83
2021/07/10 06:15:43;;;;;;;7.25;5.75;;;20.80;63.80;;;;;;4956955;28;20110;-80
2021/07/10 06:18:10;;;;;;;7.10;5.97;;;20.90;63.90;;;;;;4941677;28;20415;-80
2021/07/10 06:20:37;;;;;;;7.93;6.55;;;20.90;63.90;;;;;;4973242;28;20043;-79
2021/07/10 06:23:05;;;;;;;7.88;6.22;;;20.90;63.90;;;;;;4940712;28;20122;-83
2021/07/10 06:25:36;;;;;;;7.43;5.85;;;21.00;64.00;;;;;;4974598;28;20034;-82
2021/07/10 06:28:07;;;;;;;7.63;6.38;;;20.90;64.00;;;;;;4973096;28;20034;-83
2021/07/10 06:30:33;;;;;;;8.30;6.18;;;21.00;64.00;;;;;;4973808;28;20554;-81
2021/07/10 06:33:00;;;;;;;8.35;6.22;;;21.00;64.00;;;;;;4974189;28;20109;-82
2021/07/10 06:35:26;;;;;;;7.63;6.32;;;21.00;64.00;;;;;;4973118;28;20035;-79
2021/07/10 06:37:52;;;;;;;8.38;6.45;;;21.10;64.00;;;;;;4940941;28;20089;-80
2021/07/10 06:40:18;;;;;;;8.10;5.88;;;21.10;64.00;;;;;;4972719;28;20122;-80
2021/07/10 06:42:46;;;;;;;8.65;6.57;;;21.10;64.00;;;;;;4956817;28;20051;-80
2021/07/10 06:45:15;;;;;;;7.82;6.40;;;21.10;64.00;;;;;;4975814;28;20038;-79
2021/07/10 06:47:41;;;;;;;8.77;7.10;;;21.20;64.00;;;;;;4977862;28;20034;-80
2021/07/10 06:50:09;;;;;;;7.93;6.75;;;21.20;63.90;;;;;;4960521;28;20050;-81
2021/07/10 06:52:35;;;;;;;8.90;6.50;;;21.20;63.90;;;;;;4960489;28;20045;-79
2021/07/10 06:55:01;;;;;;;8.85;6.97;;;21.20;64.50;;;;;;4976187;28;20035;-79
2021/07/10 06:57:26;;;;;;;7.20;5.95;;;21.20;63.90;;;;;;4978941;28;20038;-80
2021/07/10 06:59:52;;;;;;;9.02;7.43;;;21.30;63.90;;;;;;4977426;28;20353;-78
2021/07/10 07:02:18;;;;;;;7.68;6.22;;;21.30;63.90;;;;;;4976333;28;20057;-79
2021/07/10 07:04:44;;;;;;;8.20;6.65;;;21.30;63.90;;;;;;4960988;28;20034;-79
2021/07/10 07:07:09;;;;;;;8.68;7.28;;;21.40;64.00;;;;;;4976644;28;20027;-79
2021/07/10 07:09:36;;;;;;;8.15;6.68;;;21.40;64.00;;;;;;4960188;28;20510;-80
2021/07/10 07:12:02;;;;;;;9.10;7.18;;;21.40;63.90;;;;;;4960277;28;20261;-81
2021/07/10 07:14:28;;;;;;;8.68;7.13;;;21.50;63.90;;;;;;4977305;28;20460;-79
2021/07/10 07:16:58;;;;;;;8.00;6.32;;;21.50;63.90;;;;;;4976002;28;20029;-80
2021/07/10 07:19:26;;;;;;;9.35;7.53;;;21.50;63.90;;;;;;4976326;28;20022;-80
2021/07/10 07:21:52;;;;;;;10.13;7.70;;;21.60;64.00;;;;;;4977467;28;20464;-80
2021/07/10 07:24:18;;;;;;;8.70;7.30;;;21.60;63.90;;;;;;4960928;28;20411;-80
2021/07/10 07:26:43;;;;;;;9.18;7.13;;;21.60;63.90;;;;;;4976164;28;20023;-81
2021/07/10 07:29:09;;;;;;;9.15;7.30;;;21.60;63.90;;;;;;4976242;28;20035;-81
2021/07/10 07:31:35;;;;;;;8.50;7.18;;;21.70;63.90;;;;;;4944081;28;20069;-79
2021/07/10 07:34:01;;;;;;;8.75;7.53;;;21.80;63.90;;;;;;4976311;28;20058;-80
2021/07/10 07:36:27;;;;;;;9.18;7.65;;;21.70;63.80;;;;;;4977383;28;20452;-81
2021/07/10 07:38:53;;;;;;;9.38;7.35;;;21.80;63.80;;;;;;4959872;28;20086;-78
2021/07/10 07:41:19;;;;;;;8.15;6.82;;;21.80;63.80;;;;;;4976303;28;20038;-79
2021/07/10 07:43:45;;;;;;;9.20;7.18;;;21.90;63.80;;;;;;4976438;28;20034;-80
2021/07/10 07:46:13;;;;;;;9.32;7.32;;;21.90;63.80;;;;;;4975887;28;20467;-80
2021/07/10 07:48:43;;;;;;;9.38;7.57;;;22.00;63.80;;;;;;4975416;28;20039;-80
2021/07/10 07:51:11;;;;;;;8.60;6.88;;;22.00;63.70;;;;;;4977109;28;20043;-80
2021/07/10 07:53:37;;;;;;;9.05;6.88;;;22.00;63.70;;;;;;4943536;28;20023;-80
2021/07/10 07:56:04;;;;;;;8.75;7.15;;;22.10;63.70;;;;;;4975008;28;20386;-80
2021/07/10 07:58:30;;;;;;;8.25;6.65;;;22.10;63.60;;;;;;4959675;28;20462;-80
2021/07/10 08:00:56;;;;;;;8.57;6.95;;;22.20;63.60;;;;;;4945034;28;20098;-81
2021/07/10 08:03:21;;;;;;;9.60;7.38;;;22.20;63.50;;;;;;4979163;28;20061;-81
2021/07/10 08:05:47;;;;;;;8.80;7.35;;;22.30;63.60;;;;;;4979367;28;20478;-80
2021/07/10 08:08:14;;;;;;;8.88;7.03;;;22.30;63.50;;;;;;4962221;28;20124;-81
2021/07/10 08:10:39;;;;;;;8.30;6.63;;;22.30;63.40;;;;;;4995068;28;20038;-81
2021/07/10 08:13:05;;;;;;;8.38;6.40;;;22.40;63.40;;;;;;4995207;28;20022;-80
2021/07/10 08:15:31;;;;;;;8.90;6.88;;;22.40;63.40;;;;;;4962649;28;20393;-81
2021/07/10 08:17:57;;;;;;;7.95;6.20;;;22.40;63.30;;;;;;4978633;28;20030;-80
2021/07/10 08:20:23;;;;;;;7.80;6.45;;;22.50;63.20;;;;;;4961815;28;20041;-80
2021/07/10 08:22:49;;;;;;;8.75;6.80;;;22.50;63.20;;;;;;4962396;28;20032;-81
2021/07/10 08:25:17;;;;;;;8.52;6.38;;;22.60;63.20;;;;;;4994718;28;20109;-80
2021/07/10 08:27:44;;;;;;;7.60;6.80;;;22.60;63.10;;;;;;4995764;28;20033;-80
2021/07/10 08:30:13;;;;;;;8.68;7.00;;;22.70;63.10;;;;;;4995690;28;20031;-80
2021/07/10 08:32:39;;;;;;;8.50;6.43;;;22.70;63.70;;;;;;4961956;28;20035;-80
2021/07/10 08:35:06;;;;;;;8.05;6.60;;;22.70;63.60;;;;;;4995761;28;20037;-80
2021/07/10 08:37:31;;;;;;;7.57;6.00;;;22.80;62.90;;;;;;4962094;28;20026;-81
2021/07/10 08:39:57;;;;;;;8.18;6.53;;;22.80;62.90;;;;;;4978444;28;20121;-80
2021/07/10 08:42:23;;;;;;;8.50;6.25;;;22.90;62.90;;;;;;4961856;28;20026;-82
2021/07/10 08:44:53;;;;;;;7.50;5.68;;;22.90;62.80;;;;;;4962639;28;20030;-81
2021/07/10 08:47:19;;;;;;;7.55;5.78;;;22.90;62.80;;;;;;4978154;28;20106;-80
2021/07/10 08:49:45;;;;;;;7.63;6.20;;;23.00;62.80;;;;;;4994776;28;20045;-82
2021/07/10 08:52:12;;;;;;;7.25;6.03;;;23.10;62.80;;;;;;4994728;28;20034;-80
2021/07/10 08:54:38;;;;;;;8.43;6.50;;;23.10;62.80;;;;;;4977923;28;20028;-81
2021/07/10 08:57:07;;;;;;;8.15;6.22;;;23.20;62.70;;;;;;4977813;28;20034;-81
2021/07/10 08:59:33;;;;;;;7.50;5.40;;;23.20;62.60;;;;;;4977744;28;20022;-81
2021/07/10 09:01:59;;;;;;;7.07;5.80;;;23.20;62.50;;;;;;4977462;28;20092;-80
2021/07/10 09:04:26;;;;;;;7.28;5.63;;;23.30;62.60;;;;;;4961390;28;20070;-81
2021/07/10 09:06:51;;;;;;;6.97;5.03;;;23.40;62.50;;;;;;4977766;28;20211;-81
2021/07/10 09:09:18;;;;;;;7.57;5.55;;;23.40;62.40;;;;;;4995035;28;20462;-80
2021/07/10 09:12:00;;;;;;;6.55;5.18;;;23.50;62.40;;;;;;4978657;28;20041;-81
2021/07/10 09:14:31;;;;;;;6.38;4.88;;;23.50;62.30;;;;;;4978207;28;20033;-81
2021/07/10 09:17:20;;;;;;;6.55;5.40;;;23.60;62.10;;;;;;4994421;28;20030;-81
2021/07/10 09:19:47;;;;;;;6.40;4.57;;;23.60;62.10;;;;;;4979264;28;20038;-81
2021/07/10 09:22:30;;;;;;;5.75;4.40;;;23.60;61.90;;;;;;4961686;28;20030;-81
2021/07/10 09:24:57;;;;;;;6.35;4.22;;;23.70;61.90;;;;;;4962869;28;20526;-81
2021/07/10 09:27:23;;;;;;;6.32;4.50;;;23.80;61.80;;;;;;4995008;28;20030;-81
2021/07/10 09:29:49;;;;;;;5.40;4.07;;;23.80;61.70;;;;;;4962835;28;20035;-82
2021/07/10 09:32:21;;;;;;;5.50;4.10;;;23.80;61.70;;;;;;4963518;28;20056;-82
2021/07/10 09:34:54;;;;;;;5.25;4.10;;;23.90;61.70;;;;;;4995962;28;20026;-80
2021/07/10 09:37:26;;;;;;;6.10;4.40;;;23.90;61.50;;;;;;4977988;28;20431;-79
2021/07/10 09:39:57;;;;;;;5.47;4.00;;;24.00;61.40;;;;;;4977526;28;20030;-79
2021/07/10 09:42:35;;;;;;;5.65;4.38;;;24.00;61.40;;;;;;4994879;28;20458;-80
2021/07/10 09:45:02;;;;;;;5.05;3.40;;;24.10;61.30;;;;;;4995459;28;20033;-80
2021/07/10 09:47:34;;;;;;;5.00;3.50;;;24.10;61.20;;;;;;4977583;28;20068;-79
2021/07/10 09:50:03;;;;;;;5.20;3.67;;;24.10;61.20;;;;;;4994297;28;20030;-79
2021/07/10 09:52:30;;;;;;;5.78;4.07;;;24.20;61.10;;;;;;4994101;28;20502;-80
2021/07/10 09:55:17;;;;;;;5.15;3.70;;;24.20;61.10;;;;;;4961107;28;20502;-79
2021/07/10 09:57:44;;;;;;;5.50;3.90;;;24.30;61.20;;;;;;4977810;28;20038;-79
2021/07/10 10:00:15;;;;;;;4.75;3.38;;;24.40;61.00;;;;;;4977239;28;20046;-80
2021/07/10 10:02:42;;;;;;;5.22;3.70;;;24.40;61.00;;;;;;4960734;28;20093;-81
2021/07/10 10:05:10;;;;;;;4.53;3.33;;;24.50;60.90;;;;;;4993307;28;20040;-81
2021/07/10 10:07:54;;;;;;;4.47;3.40;;;24.50;60.90;;;;;;4961095;28;20029;-80
2021/07/10 10:10:26;;;;;;;5.18;3.40;;;24.60;60.90;;;;;;4994218;28;20483;-81
2021/07/10 10:13:07;;;;;;;4.32;3.53;;;24.60;60.70;;;;;;4977522;28;20519;-81
2021/07/10 10:15:35;;;;;;;4.82;3.55;;;24.70;60.70;;;;;;4976714;28;20034;-81
2021/07/10 10:18:01;;;;;;;5.20;3.70;;;24.70;60.50;;;;;;4978243;28;20457;-81
2021/07/10 10:20:28;;;;;;;5.55;3.33;;;24.80;60.50;;;;;;4965378;28;20049;-81
2021/07/10 10:22:55;;;;;;;6.25;3.58;;;24.80;60.40;;;;;;4997079;28;20027;-82
2021/07/10 10:25:22;;;;;;;4.07;3.20;;;24.90;60.40;;;;;;4998230;28;20034;-81
2021/07/10 10:27:50;;;;;;;3.78;2.85;;;24.90;60.30;;;;;;4964617;28;20471;-80
2021/07/10 10:30:18;;;;;;;4.45;3.53;;;25.00;60.20;;;;;;4980478;28;20072;-81
2021/07/10 10:32:45;;;;;;;4.97;3.72;;;25.00;60.20;;;;;;4980473;28;20034;-81
2021/07/10 10:35:11;;;;;;;5.25;3.50;;;25.10;60.20;;;;;;4997393;28;20037;-82
2021/07/10 10:37:37;;;;;;;4.80;3.30;;;25.10;60.10;;;;;;4980452;28;20104;-81
2021/07/10 10:40:31;;;;;;;5.03;3.70;;;25.10;60.00;;;;;;4980757;28;20390;-80
2021/07/10 10:43:00;;;;;;;4.68;3.75;;;25.20;60.20;;;;;;4995242;28;20042;-81
2021/07/10 10:45:37;;;;;;;4.05;3.22;;;25.20;59.90;;;;;;4979942;28;20085;-82
2021/07/10 10:48:04;;;;;;;5.45;3.80;;;25.30;60.00;;;;;;4997733;28;20109;-81
2021/07/10 10:50:38;;;;;;;4.78;3.38;;;25.30;59.90;;;;;;4979834;28;20030;-81
2021/07/10 10:53:07;;;;;;;4.15;3.10;;;25.40;59.90;;;;;;4980747;28;20109;-81
2021/07/10 10:55:35;;;;;;;4.80;3.47;;;25.50;59.80;;;;;;4963896;28;20026;-80
2021/07/10 10:58:10;;;;;;;4.35;3.30;;;25.60;59.80;;;;;;4964237;28;20037;-81
2021/07/10 11:00:37;;;;;;;5.10;3.67;;;25.60;59.80;;;;;;4996262;28;20116;-81
2021/07/10 11:03:10;;;;;;;5.05;3.55;;;25.60;59.70;;;;;;4980053;28;20050;-81
2021/07/10 11:05:57;;;;;;;5.05;3.47;;;25.80;59.70;;;;;;4997383;28;20026;-81
2021/07/10 11:08:36;;;;;;;5.32;3.75;;;25.80;59.70;;;;;;4963868;28;20018;-81
2021/07/10 11:11:02;;;;;;;5.30;3.75;;;25.90;59.50;;;;;;4996842;28;20220;-81
2021/07/10 11:13:38;;;;;;;4.85;3.53;;;26.00;59.50;;;;;;4979784;28;20451;-82
2021/07/10 11:16:09;;;;;;;4.68;3.28;;;26.00;59.40;;;;;;4997360;28;20109;-81
2021/07/10 11:19:08;;;;;;;4.13;2.97;;;26.10;59.40;;;;;;4963726;28;20034;-81
2021/07/10 11:24:20;;;;;;;3.95;3.05;;;26.20;59.20;;;;;;4996214;28;20165;-81
2021/07/10 11:26:58;;;;;;;4.20;3.15;;;26.20;59.30;;;;;;4995892;28;20030;-80
2021/07/10 11:29:25;;;;;;;4.97;3.47;;;26.30;59.20;;;;;;4995160;28;20030;-81
2021/07/10 11:31:52;;;;;;;4.30;3.10;;;26.30;59.10;;;;;;4963240;28;20450;-81
2021/07/10 11:34:39;;;;;;;4.55;3.22;;;26.40;59.10;;;;;;4995596;28;20046;-81
2021/07/10 11:37:29;;;;;;;4.88;3.25;;;26.40;59.10;;;;;;4968807;28;20045;-82
2021/07/10 11:40:02;;;;;;;4.90;3.35;;;26.40;59.00;;;;;;4979747;28;20038;-82
2021/07/10 11:42:29;;;;;;;4.57;3.15;;;26.50;59.00;;;;;;4980290;28;20336;-81
2021/07/10 11:45:08;;;;;;;4.15;3.28;;;26.50;59.00;;;;;;4979504;28;20077;-79
2021/07/10 11:47:39;;;;;;;4.57;3.45;;;26.60;59.00;;;;;;4979725;28;20038;-80
2021/07/10 11:50:11;;;;;;;4.28;3.25;;;26.60;59.00;;;;;;4979838;28;20467;-81
2021/07/10 11:52:37;;;;;;;3.85;2.75;;;26.60;59.00;;;;;;4963847;28;20030;-81
2021/07/10 11:55:06;;;;;;;4.53;2.95;;;26.60;58.90;;;;;;4996471;28;20088;-79
2021/07/10 11:57:35;;;;;;;4.50;2.92;;;26.70;59.00;;;;;;4979005;28;20129;-80
2021/07/10 12:00:01;;;;;;;4.13;3.20;;;26.70;58.90;;;;;;4978690;28;20066;-79
2021/07/10 12:02:32;;;;;;;3.85;3.03;;;26.70;58.90;;;;;;4962663;28;20077;-80
2021/07/10 12:05:09;;;;;;;4.50;3.10;;;26.80;58.90;;;;;;4978872;28;20512;-79
2021/07/10 12:07:37;;;;;;;4.60;3.08;;;26.80;58.90;;;;;;4962962;28;20030;-81
2021/07/10 12:10:11;;;;;;;4.40;2.95;;;26.80;58.90;;;;;;4978124;28;20026;-80
2021/07/10 12:12:43;;;;;;;3.92;2.90;;;26.90;58.90;;;;;;4994776;28;20034;-79
2021/07/10 12:15:19;;;;;;;4.22;2.80;;;26.90;58.90;;;;;;4978573;28;20035;-81
2021/07/10 12:17:48;;;;;;;4.45;2.83;;;26.90;58.90;;;;;;4996069;28;20449;-84
2021/07/10 12:20:16;;;;;;;3.20;2.67;;;26.90;58.80;;;;;;4996510;28;20033;-82
2021/07/10 12:22:48;;;;;;;3.55;2.65;;;26.90;58.80;;;;;;4978315;28;20038;-79
2021/07/10 12:25:14;;;;;;;4.35;2.67;;;27.00;58.80;;;;;;4994533;28;20030;-79
2021/07/10 12:27:40;;;;;;;4.60;2.78;;;27.00;58.80;;;;;;4995925;28;20034;-78
2021/07/10 12:30:06;;;;;;;3.97;2.80;;;27.00;58.70;;;;;;4994692;28;20041;-79
2021/07/10 12:32:33;;;;;;;3.92;2.95;;;27.00;58.70;;;;;;4978247;28;20030;-78
2021/07/10 12:34:59;;;;;;;3.88;2.72;;;27.10;58.70;;;;;;4978477;28;20034;-78
2021/07/10 12:37:30;;;;;;;3.95;2.90;;;27.10;58.70;;;;;;4994656;28;20026;-79
2021/07/10 12:40:05;;;;;;;3.78;2.63;;;27.10;59.30;;;;;;4995730;28;20040;-78
2021/07/10 12:42:31;;;;;;;2.85;2.13;;;27.10;58.60;;;;;;4995492;28;20033;-78
2021/07/10 12:44:57;;;;;;;3.45;2.45;;;27.10;58.50;;;;;;4977823;28;20498;-78
2021/07/10 12:47:23;;;;;;;3.60;2.50;;;27.10;58.50;;;;;;4978669;28;20066;-79
2021/07/10 12:49:57;;;;;;;2.90;2.50;;;27.10;58.50;;;;;;4978061;28;20034;-77
2021/07/10 12:52:24;;;;;;;3.95;2.83;;;27.10;58.50;;;;;;4978866;28;20049;-78
2021/07/10 12:55:12;;;;;;;3.15;2.58;;;27.20;58.60;;;;;;4994801;28;20105;-79